Terminal Aerodrome Forecast
Issued by NWS

Home | Current Version | Previous Version | Text Only | Print | Product List | Glossary On
Versions: 1 2 3 4 5 6 7 8 9 10 11 12
478
FTUS45 KRIW 222322
TAFBPI
TAF
KBPI 222322Z 2300/2324 34016G26KT P6SM VCSH SCT040 BKN060
     FM230200 01011KT P6SM SCT070
     FM230600 VRB06KT P6SM FEW060
     FM231900 34010KT P6SM SCT070=

USA.gov is the U.S. government's official web portal to all federal, state and local government web resources and services.